TAF Text Data
IDs:
Format:
Raw Decoded Include METAR

Data at: 0810 UTC 27 Feb 2020

KCHA 270528Z 2706/2806 31009KT P6SM SCT025 BKN040
  FM271500 30010KT P6SM SCT200
  FM280000 23003KT P6SM SCT250